地図

経路データ

SID SEASON NUMBER BASIN SUBBASIN NAME ISO_TIME NATURE LAT LON WMO_WIND WMO_PRES WMO_AGENCY TRACK_TYPE DIST2LAND LANDFALL IFLAG USA_AGENCY USA_ATCF_ID USA_LAT USA_LON USA_RECORD USA_STATUS USA_WIND USA_PRES USA_SSHS USA_R34_NE USA_R34_SE USA_R34_SW USA_R34_NW USA_R50_NE USA_R50_SE USA_R50_SW USA_R50_NW USA_R64_NE USA_R64_SE USA_R64_SW USA_R64_NW USA_POCI USA_ROCI USA_RMW USA_EYE TOKYO_LAT TOKYO_LON TOKYO_GRADE TOKYO_WIND TOKYO_PRES TOKYO_R50_DIR TOKYO_R50_LONG TOKYO_R50_SHORT TOKYO_R30_DIR TOKYO_R30_LONG TOKYO_R30_SHORT TOKYO_LAND CMA_LAT CMA_LON CMA_CAT CMA_WIND CMA_PRES HKO_LAT HKO_LON HKO_CAT HKO_WIND HKO_PRES NEWDELHI_LAT NEWDELHI_LON NEWDELHI_GRADE NEWDELHI_WIND NEWDELHI_PRES NEWDELHI_CI NEWDELHI_DP NEWDELHI_POCI REUNION_LAT REUNION_LON REUNION_TYPE REUNION_WIND REUNION_PRES REUNION_TNUM REUNION_CI REUNION_RMW REUNION_R34_NE REUNION_R34_SE REUNION_R34_SW REUNION_R34_NW REUNION_R50_NE REUNION_R50_SE REUNION_R50_SW REUNION_R50_NW REUNION_R64_NE REUNION_R64_SE REUNION_R64_SW REUNION_R64_NW BOM_LAT BOM_LON BOM_TYPE BOM_WIND BOM_PRES BOM_TNUM BOM_CI BOM_RMW BOM_R34_NE BOM_R34_SE BOM_R34_SW BOM_R34_NW BOM_R50_NE BOM_R50_SE BOM_R50_SW BOM_R50_NW BOM_R64_NE BOM_R64_SE BOM_R64_SW BOM_R64_NW BOM_ROCI BOM_POCI BOM_EYE BOM_POS_METHOD BOM_PRES_METHOD NADI_LAT NADI_LON NADI_CAT NADI_WIND NADI_PRES WELLINGTON_LAT WELLINGTON_LON WELLINGTON_WIND WELLINGTON_PRES DS824_LAT DS824_LON DS824_STAGE DS824_WIND DS824_PRES TD9636_LAT TD9636_LON TD9636_STAGE TD9636_WIND TD9636_PRES TD9635_LAT TD9635_LON TD9635_WIND TD9635_PRES TD9635_ROCI NEUMANN_LAT NEUMANN_LON NEUMANN_CLASS NEUMANN_WIND NEUMANN_PRES MLC_LAT MLC_LON MLC_CLASS MLC_WIND MLC_PRES USA_GUST BOM_GUST BOM_GUST_PER REUNION_GUST REUNION_GUST_PER USA_SEAHGT USA_SEARAD_NE USA_SEARAD_SE USA_SEARAD_SW USA_SEARAD_NW STORM_SPEED STORM_DIR
1898273N14335 1898 47 NA NA NOT_NAMED 1898-09-29 12:00:00 TS 13.8000 -25.5000 main 868 868 _____________O -1 13.8000 -25.5000 TD 25 13 274
1898273N14335 1898 47 NA NA NOT_NAMED 1898-09-29 15:00:00 TS 13.8404 -26.1625 main 943 943 _____________P -1 13.8404 -26.1625 TD 25 13 275
1898273N14335 1898 47 NA NA NOT_NAMED 1898-09-29 18:00:00 TS 13.9000 -26.8000 main 1006 1006 _____________O -1 13.9000 -26.8000 TD 25 12 277
1898273N14335 1898 47 NA NA NOT_NAMED 1898-09-29 21:00:00 TS 13.9922 -27.4000 main 1069 1069 _____________P -1 13.9922 -27.4000 TD 27 12 280
1898273N14335 1898 47 NA NA NOT_NAMED 1898-09-30 00:00:00 TS 14.1000 -28.0000 main 1133 1133 _____________O -1 14.1000 -28.0000 TD 30 12 280
1898273N14335 1898 47 NA NA NOT_NAMED 1898-09-30 03:00:00 TS 14.1999 -28.6500 main 1207 1207 _____________P -1 14.1999 -28.6500 TD 32 13 279
1898273N14335 1898 47 NA NA NOT_NAMED 1898-09-30 06:00:00 TS 14.3000 -29.3000 main 1271 1271 _____________O -1 14.3000 -29.3000 TS 35 12 279
1898273N14335 1898 47 NA NA NOT_NAMED 1898-09-30 09:00:00 TS 14.3845 -29.8703 main 1335 1335 _____________P -1 14.3845 -29.8703 TS 37 12 280
1898273N14335 1898 47 NA NA NOT_NAMED 1898-09-30 12:00:00 TS 14.5000 -30.5000 main 1399 1399 _____________O -1 14.5000 -30.5000 TS 40 14 282
1898273N14335 1898 47 NA NA NOT_NAMED 1898-09-30 15:00:00 TS 14.6851 -31.3125 main 1484 1484 _____________P -1 14.6851 -31.3125 TS 42 17 284
1898273N14335 1898 47 NA NA NOT_NAMED 1898-09-30 18:00:00 TS 14.9000 -32.2000 main 1580 1580 _____________O -1 14.9000 -32.2000 TS 45 18 284
1898273N14335 1898 47 NA NA NOT_NAMED 1898-09-30 21:00:00 TS 15.1001 -33.0875 main 1677 1677 _____________P -1 15.1001 -33.0875 TS 47 17 284
1898273N14335 1898 47 NA NA NOT_NAMED 1898-10-01 00:00:00 TS 15.3000 -33.9000 main 1763 1763 _____________O -1 15.3000 -33.9000 TS 50 14 287
1898273N14335 1898 47 NA NA NOT_NAMED 1898-10-01 03:00:00 TS 15.5062 -34.4629 main 1827 1827 _____________P -1 15.5062 -34.4629 TS 50 12 289
1898273N14335 1898 47 NA NA NOT_NAMED 1898-10-01 06:00:00 TS 15.7000 -35.1000 main 1892 1892 _____________O -1 15.7000 -35.1000 TS 50 17 281
1898273N14335 1898 47 NA NA NOT_NAMED 1898-10-01 09:00:00 TS 15.8442 -36.2300 main 2010 2010 _____________P -1 15.8442 -36.2300 TS 50 21 278
1898273N14335 1898 47 NA NA NOT_NAMED 1898-10-01 12:00:00 TS 16.0000 -37.3000 main 2014 1988 _____________O -1 16.0000 -37.3000 TS 50 16 284
1898273N14335 1898 47 NA NA NOT_NAMED 1898-10-01 15:00:00 TS 16.2340 -37.8052 main 1988 1986 _____________P -1 16.2340 -37.8052 TS 50 9 303
1898273N14335 1898 47 NA NA NOT_NAMED 1898-10-01 18:00:00 TS 16.5000 -38.1000 main 1986 1970 _____________O -1 16.5000 -38.1000 TS 50 8 308
1898273N14335 1898 47 NA NA NOT_NAMED 1898-10-01 21:00:00 TS 16.7499 -38.5001 main 1970 1962 _____________P -1 16.7499 -38.5001 TS 50 9 303
1898273N14335 1898 47 NA NA NOT_NAMED 1898-10-02 00:00:00 TS 17.0000 -38.9000 main 1962 1949 _____________O -1 17.0000 -38.9000 TS 50 9 303
1898273N14335 1898 47 NA NA NOT_NAMED 1898-10-02 03:00:00 TS 17.2499 -39.3001 main 1949 1942 _____________P -1 17.2499 -39.3001 TS 50 9 303
1898273N14335 1898 47 NA NA NOT_NAMED 1898-10-02 06:00:00 TS 17.5000 -39.7000 main 1945 1932 _____________O -1 17.5000 -39.7000 TS 50 9 302
1898273N14335 1898 47 NA NA NOT_NAMED 1898-10-02 09:00:00 TS 17.7199 -40.1003 main 1934 1929 _____________P -1 17.7199 -40.1003 TS 50 9 303
1898273N14335 1898 47 NA NA NOT_NAMED 1898-10-02 12:00:00 TS 18.0000 -40.5000 main 1932 1928 _____________O -1 18.0000 -40.5000 TS 50 10 312
1898273N14335 1898 47 NA NA NOT_NAMED 1898-10-02 15:00:00 TS 18.4200 -40.9074 main 1942 1942 _____________P -1 18.4200 -40.9074 TS 50 12 320
1898273N14335 1898 47 NA NA NOT_NAMED 1898-10-02 18:00:00 TS 18.9000 -41.3000 main 1963 1963 _____________O -1 18.9000 -41.3000 TS 50 12 322
1898273N14335 1898 47 NA NA NOT_NAMED 1898-10-02 21:00:00 TS 19.3575 -41.6726 main 1980 1980 _____________P -1 19.3575 -41.6726 TS 50 11 324
1898273N14335 1898 47 NA NA NOT_NAMED 1898-10-03 00:00:00 TS 19.8000 -42.0000 main 1997 1997 _____________O -1 19.8000 -42.0000 TS 50 10 326
1898273N14335 1898 47 NA NA NOT_NAMED 1898-10-03 03:00:00 TS 20.1999 -42.2653 main 2015 2015 _____________P -1 20.1999 -42.2653 TS 50 9 330
1898273N14335 1898 47 NA NA NOT_NAMED 1898-10-03 06:00:00 TS 20.6000 -42.5000 main 2040 2040 _____________O -1 20.6000 -42.5000 TS 50 10 330
1898273N14335 1898 47 NA NA NOT_NAMED 1898-10-03 09:00:00 TS 21.0726 -42.8096 main 2070 2070 _____________P -1 21.0726 -42.8096 TS 50 10 333
1898273N14335 1898 47 NA NA NOT_NAMED 1898-10-03 12:00:00 TS 21.5000 -43.0000 main 2097 2097 _____________O -1 21.5000 -43.0000 TS 50 7 353
1898273N14335 1898 47 NA NA NOT_NAMED 1898-10-03 15:00:00 TS 21.7800 -42.9029 main 2131 2131 _____________P -1 21.7800 -42.9029 TS 50 6 29
1898273N14335 1898 47 NA NA NOT_NAMED 1898-10-03 18:00:00 TS 22.0000 -42.7000 main 2161 2161 _____________O -1 22.0000 -42.7000 TS 50 5 28
1898273N14335 1898 47 NA NA NOT_NAMED 1898-10-03 21:00:00 TS 22.2498 -42.6297 main 2186 2186 _____________P -1 22.2498 -42.6297 TS 50 5 20
1898273N14335 1898 47 NA NA NOT_NAMED 1898-10-04 00:00:00 TS 22.5000 -42.5000 main 2220 2220 _____________O -1 22.5000 -42.5000 TS 50 6 39
1898273N14335 1898 47 NA NA NOT_NAMED 1898-10-04 03:00:00 TS 22.7501 -42.1950 main 2264 2264 _____________P -1 22.7501 -42.1950 TS 47 8 52
1898273N14335 1898 47 NA NA NOT_NAMED 1898-10-04 06:00:00 TS 23.0000 -41.8000 main 2305 2305 _____________O -1 23.0000 -41.8000 TS 45 9 56
1898273N14335 1898 47 NA NA NOT_NAMED 1898-10-04 09:00:00 TS 23.2273 -41.4221 main 2346 2346 _____________P -1 23.2273 -41.4221 TS 45 9 56
1898273N14335 1898 47 NA NA NOT_NAMED 1898-10-04 12:00:00 TS 23.5000 -41.0000 main 2396 2396 _____________O -1 23.5000 -41.0000 TS 45 11 52
1898273N14335 1898 47 NA NA NOT_NAMED 1898-10-04 15:00:00 TS 23.8850 -40.5151 main 2409 2348 _____________P -1 23.8850 -40.5151 TS 45 12 49
1898273N14335 1898 47 NA NA NOT_NAMED 1898-10-04 18:00:00 TS 24.3000 -40.0000 main 2348 2290 _____________O -1 24.3000 -40.0000 TS 45 12 50
1898273N14335 1898 47 NA NA NOT_NAMED 1898-10-04 21:00:00 TS 24.6498 -39.4995 main 2290 2230 _____________P -1 24.6498 -39.4995 TS 42 11 52
1898273N14335 1898 47 NA NA NOT_NAMED 1898-10-05 00:00:00 TS 25.0000 -39.0000 main 2230 2171 _____________O -1 25.0000 -39.0000 TS 40 12 50
1898273N14335 1898 47 NA NA NOT_NAMED 1898-10-05 03:00:00 TS 25.3998 -38.4999 main 2171 2112 _____________P -1 25.3998 -38.4999 TS 40 12 48
1898273N14335 1898 47 NA NA NOT_NAMED 1898-10-05 06:00:00 TS 25.8000 -38.0000 main 2112 2056 _____________O -1 25.8000 -38.0000 TS 40 12 50
1898273N14335 1898 47 NA NA NOT_NAMED 1898-10-05 09:00:00 TS 26.1421 -37.5217 main 2056 1999 _____________P -1 26.1421 -37.5217 TS 40 11 52
1898273N14335 1898 47 NA NA NOT_NAMED 1898-10-05 12:00:00 TS 26.5000 -37.0000 main 1999 1933 _____________O -1 26.5000 -37.0000 TS 40 13 53
1898273N14335 1898 47 NA NA NOT_NAMED 1898-10-05 15:00:00 TS 26.9351 -36.3650 main 1933 1856 _____________P -1 26.9351 -36.3650 TS 40 15 52
1898273N14335 1898 47 NA NA NOT_NAMED 1898-10-05 18:00:00 TS 27.4000 -35.7000 main 1856 1792 _____________O -1 27.4000 -35.7000 TS 40 15 51
1898273N14335 1898 47 NA NA NOT_NAMED 1898-10-05 21:00:00 TS 27.8496 -35.0919 main 1792 1729 _____________P -1 27.8496 -35.0919 TS 40 14 50
1898273N14335 1898 47 NA NA NOT_NAMED 1898-10-06 00:00:00 TS 28.3000 -34.5000 main 1729 1668 _____________O -1 28.3000 -34.5000 TS 40 14 49
1898273N14335 1898 47 NA NA NOT_NAMED 1898-10-06 03:00:00 TS 28.7571 -33.9070 main 1667 1608 _____________P -1 28.7571 -33.9070 TS 40 14 49
1898273N14335 1898 47 NA NA NOT_NAMED 1898-10-06 06:00:00 TS 29.2000 -33.3000 main 1608 1541 _____________O -1 29.2000 -33.3000 TS 40 14 52
1898273N14335 1898 47 NA NA NOT_NAMED 1898-10-06 09:00:00 TS 29.6455 -32.5981 main 1541 1485 _____________P -1 29.6455 -32.5981 TS 40 14 55
1898273N14335 1898 47 NA NA NOT_NAMED 1898-10-06 12:00:00 TS 30.0000 -32.0000 main 1485 1458 _____________O -1 30.0000 -32.0000 TS 40 10 55
1898273N14335 1898 47 NA NA NOT_NAMED 1898-10-06 15:00:00 TS 30.1944 -31.6891 main 1458 1439 _____________P -1 30.1944 -31.6891 TS 37 5 55
1898273N14335 1898 47 NA NA NOT_NAMED 1898-10-06 18:00:00 TS 30.3000 -31.5000 main 1439 1421 _____________O -1 30.3000 -31.5000 TS 35 4 62
1898273N14335 1898 47 NA NA NOT_NAMED 1898-10-06 21:00:00 TS 30.4000 -31.2498 main 1412 1394 _____________P -1 30.4000 -31.2498 TS 35 5 65
1898273N14335 1898 47 NA NA NOT_NAMED 1898-10-07 00:00:00 TS 30.5000 -31.0000 main 1394 1376 _____________O -1 30.5000 -31.0000 TS 35 5 60
1898273N14335 1898 47 NA NA NOT_NAMED 1898-10-07 03:00:00 TS 30.6500 -30.7500 main 1376 1351 _____________P -1 30.6500 -30.7500 TS 32 5 55
1898273N14335 1898 47 NA NA NOT_NAMED 1898-10-07 06:00:00 TS 30.8000 -30.5000 main 1351 1334 _____________O -1 30.8000 -30.5000 TD 30 5 59
1898273N14335 1898 47 NA NA NOT_NAMED 1898-10-07 09:00:00 TS 30.9074 -30.2574 main 1334 1308 _____________P -1 30.9074 -30.2574 TD 30 5 65
1898273N14335 1898 47 NA NA NOT_NAMED 1898-10-07 12:00:00 TS 31.0000 -30.0000 main 1308 1282 _____________O -1 31.0000 -30.0000 TD 30 5 67
1898273N14335 1898 47 NA NA NOT_NAMED 1898-10-07 15:00:00 TS 31.1074 -29.7150 main 1282 1256 _____________P -1 31.1074 -29.7150 TD 30 6 69
1898273N14335 1898 47 NA NA NOT_NAMED 1898-10-07 18:00:00 TS 31.2000 -29.4000 main 1256 1228 _____________O -1 31.2000 -29.4000 TD 30 6 75
1898273N14335 1898 47 NA NA NOT_NAMED 1898-10-07 21:00:00 TS 31.2575 -29.0499 main 1221 1193 _____________P -1 31.2575 -29.0499 TD 27 6 81
1898273N14335 1898 47 NA NA NOT_NAMED 1898-10-08 00:00:00 TS 31.3000 -28.7000 main 1193 1166 _____________O -1 31.3000 -28.7000 TD 25 6 81
1898273N14335 1898 47 NA NA NOT_NAMED 1898-10-08 03:00:00 TS 31.3499 -28.3925 main 1166 1141 _____________P -1 31.3499 -28.3925 TD 25 5 79
1898273N14335 1898 47 NA NA NOT_NAMED 1898-10-08 06:00:00 TS 31.4000 -28.1000 main 1141 1113 _____________O -1 31.4000 -28.1000 TD 25 5 79
1898273N14335 1898 47 NA NA NOT_NAMED 1898-10-08 09:00:00 TS 31.4502 -27.8026 main 1116 1089 _____________P -1 31.4502 -27.8026 TD 25 5 79
1898273N14335 1898 47 NA NA NOT_NAMED 1898-10-08 12:00:00 TS 31.5000 -27.5000 main 1089 _____________O -1 31.5000 -27.5000 TD 25 5 79

IBTrACS Databaseについて

本データベースは、米国NOAAが公開する1842年以降の世界の熱帯低気圧のベストトラックデータアーカイブInternational Best Track Archive for Climate Stewardship (IBTrACS)を、ウェブで閲覧しやすい形式に変換したものです。

最終更新日:2021-10-21